Coggon, Iowa
Current Conditions -  °F | °C
As of 5:55 AM on Thursday 27 Nov 2014 (Local Time) from KMXO Reporting Station
Overcast Overcast  
Wind Chill:   Ceiling: 1700
Heat Index: 21°   Visibility: 10mi
Dew Point: 16°   Wind: 13mph
Humidity: 80%   Direction: 310°NW
Pressure: 30.37"   Gusts: NA
Location:  42.28°N, 91.53°W
Report Text: KMXO 271155Z AUTO 31011KT 10SM OVC017 M06/M09 A3037 RMK AO2
Loading
Personal Weather Stations






























Interactive Weather Map New forecast layout! Learn more

10-Day Weather Forecast

Advertisements
Track Severe Weather on mobile